Bango, Nevada Weather observations

Data are for 10 minute period ending at time listed.
 Day   Time    Ave.   Ave.  Ave.  Vector   Max.   Stn.    Total    Solar   Ave.  
  of    of     Air    Rel.  Wind   Wind    Wind   Baro.  Precip.   Rad.    Soil  
Year   Day     Temp.  Hum.  Speed  Dir.    Gust   Pres.                    Temp. 
2016   (PST)    F      %     mph   deg.    mph     mb.     in.     W/m2     F    
--------------------------------------------------------------------------------- 
 181    3:30   77.9    18   12.9   300     16.7   876.0    0.00       0    32.8  
 181    3:40   77.5    18   10.4   298     13.2   876.1    0.00       0    32.8  
 181    3:50   77.3    19   10.4   297     14.1   876.1    0.00       0    32.7  
 181    4:00   77.4    19   11.8   300     15.8   876.1    0.00       0    32.6  
 181    4:10   77.5    18   10.9   299     14.1   876.2    0.00       0    32.5  
 181    4:20   78.0    18   11.9   305     15.8   876.2    0.00       0    32.5  
 181    4:30   77.9    18   10.1   308     14.1   876.3    0.00       1    32.4  
 181    4:40   76.7    20    8.1   305     11.4   876.4    0.00       5    32.3  
 181    4:50   76.4    20    8.7   304     11.4   876.5    0.00      15    32.2  
 181    5:00   76.5    20    9.2   299     12.3   876.5    0.00      24    32.2  
 181    5:10   76.7    20   10.5   302     14.9   876.6    0.00      48    32.1  
 181    5:20   77.1    19   11.9   301     14.9   876.5    0.00      65    32.0  
 181    5:30   77.3    19   13.2   300     16.7   876.5    0.00      53    32.0  
 181    5:40   77.7    18   13.8   302     16.7   876.5    0.00     113    31.9  
 181    5:50   78.5    18   12.5   306     15.8   876.5    0.00     160    31.8  
 181    6:00   79.2    17   12.2   306     16.7   876.5    0.00     165    31.7  
 181    6:10   79.4    17   10.6   305     15.8   876.6    0.00     191    31.7  
 181    6:20   79.6    17    9.6   299     16.7   876.6    0.00     215    31.6  
 181    6:30   80.8    16   12.2   302     20.3   876.6    0.00     335    31.6  
 181    6:40   80.9    16   16.4   304     20.3   876.6    0.00     390    31.5  
 181    6:50   80.2    17   15.5   302     21.2   876.8    0.00     265    31.4  
 181    7:00   80.8    16   12.8   300     16.7   876.9    0.00     277    31.4  
 181    7:10   81.4    15   11.5   297     14.9   876.9    0.00     272    31.3  
 181    7:20   82.6    14   11.8   295     14.9   876.9    0.00     458    31.2  
 181    7:30   84.2    13   10.2   302     14.9   876.9    0.00     492    31.2  
 181    7:40   84.9    13   12.4   300     15.8   876.9    0.00     522    31.1  
 181    7:50   85.5    12   11.3   300     14.9   876.9    0.00     559    31.0  
 181    8:00   85.8    12   11.2   303     14.9   876.9    0.00     592    31.0  
 181    8:10   86.5    12    8.9   313     11.4   877.0    0.00     625    31.0  
 181    8:20   87.6    11    4.0   296      9.6   877.1    0.00     657    30.9  
 181    8:30   88.2    11    2.0   285      7.8   877.1    0.00     686    30.9  
 181    8:40   88.6    11    0.6   214      2.4   877.1    0.00     715    30.8  
 181    8:50   89.6    11    0.6   250      0.6   877.1    0.00     744    30.8  
 181    9:00   89.6    11    1.3   273      8.7   877.1    0.00     774    30.8  
 181    9:10   89.5    11    1.5   324      8.7   877.0    0.00     802    30.8  
 181    9:20   90.5    11    4.2   223     10.5   876.9    0.00     827    30.8  
 181    9:30   91.0    11    7.8   219     11.4   876.7    0.00     850    30.8  
 181    9:40   90.1    11    8.3   184     14.1   876.7    0.00     871    30.7  
 181    9:50   90.1    12    4.7   183     10.5   876.7    0.00     890    30.8  
 181   10:00   90.9    11    6.4   172     13.2   876.7    0.00     911    30.8  
 181   10:10   91.0    12    7.4   181     12.3   876.6    0.00     928    30.8  
 181   10:20   91.0    11    6.0   212     11.4   876.6    0.00     945    30.8  
 181   10:30   91.3    12    7.0   163     13.2   876.5    0.00     962    30.9  
 181   10:40   91.7    11    9.6   165     14.1   876.3    0.00     976    30.9  
 181   10:50   91.8    11    6.3   146     16.7   876.3    0.00     992    31.0  
 181   11:00   92.4    11    6.4   158     11.4   876.1    0.00    1006    31.1  
 181   11:10   93.4    10    8.2   180     14.1   876.0    0.00    1013    31.1  
 181   11:20   93.5     9    7.8   191     14.9   875.9    0.00    1019    31.2  
 181   11:30   93.9     9    6.2   160     11.4   875.8    0.00    1021    31.3  
 181   11:40   93.9     8    7.8   163     14.9   875.7    0.00    1028    31.4  
 181   11:50   94.4     9    6.8   195     14.1   875.5    0.00    1028    31.5  
 181   12:00   94.7    10    9.8   201     15.8   875.4    0.00    1027    31.7  
 181   12:10   95.0    10    9.2   198     14.9   875.2    0.00    1009    31.8  
 181   12:20   95.4    10    9.7   197     16.7   875.0    0.00     972    31.9  
 181   12:30   95.1    10    7.3   211     16.7   874.9    0.00     864    32.0  
 181   12:40   95.4    10   10.2   193     16.7   874.7    0.00    1058    32.2  
 181   12:50   95.8    10   11.8   166     17.6   874.5    0.00    1048    32.3  
 181   13:00   95.6    10    9.0   168     16.7   874.4    0.00    1015    32.5  
 181   13:10   96.4    10   10.5   176     18.5   874.3    0.00     993    32.7  
 181   13:20   96.9    10    9.1   190     19.4   874.1    0.00     982    32.8  
 181   13:30   97.4     9    5.8   221     14.9   874.0    0.00     973    33.0  
 181   13:40   97.8     9   10.7   206     20.3   873.8    0.00     967    33.1  
 181   13:50   98.4     8    4.9   217     15.8   873.7    0.00     956    33.3  
 181   14:00   98.3     8    4.5   185     14.9   873.5    0.00     936    33.4  
 181   14:10   98.2     8   11.8   200     20.3   873.3    0.00     918    33.6  
 181   14:20   98.4     8   10.0   228     21.2   873.3    0.00     903    33.8  
 181   14:30   98.7     7    4.2   223     18.5   873.1    0.00     884    33.9  
 181   14:40   98.8     7   13.2   192     18.5   872.9    0.00     860    34.1  
 181   14:50   98.7     7   12.2   219     23.9   872.8    0.00     832    34.2  
 181   15:00   99.5     7   16.8   253     27.5   872.7    0.00     812    34.4  
 181   15:10   98.9     7   15.0   223     23.9   872.7    0.00     787    34.6  
 181   15:20   99.4     7   10.0   248     21.2   872.7    0.00     762    34.7  
 181   15:30   99.3     8   10.7   239     22.1   872.6    0.00     743    34.9  
 181   15:40   98.9     8    6.5   226     19.4   872.4    0.00     732    35.0  
 181   15:50   99.4     8   13.4   220     20.3   872.4    0.00     694    35.2  
 181   16:00   99.3     8   13.4   258     20.3   872.3    0.00     649    35.3  
 181   16:10   99.7     8   12.1   264     24.8   872.2    0.00     626    35.4  
 181   16:20   99.1     8   17.5   255     26.6   872.2    0.00     593    35.5  
 181   16:30   98.6     8   14.7   267     24.8   872.2    0.00     546    35.6  
 181   16:40   97.9     9   19.1   268     26.6   872.3    0.00     507    35.8  
 181   16:50   97.7     9   17.9   257     27.5   872.3    0.00     470    35.8  
 181   17:00   98.4     8   16.3   262     23.9   872.3    0.00     436    35.9  
 181   17:10   97.4     9   16.8   261     23.9   872.4    0.00     402    36.0  
 181   17:20   97.2     9   18.7   266     26.6   872.4    0.00     366    36.1  
 181   17:30   96.5     9   17.3   259     26.6   872.5    0.00     332    36.2  
 181   17:40   96.6     9   16.0   252     22.1   872.6    0.00     299    36.2  
 181   17:50   96.3     9   17.1   268     24.8   872.7    0.00     266    36.3  
 181   18:00   95.6     9   16.4   250     22.1   872.8    0.00     232    36.3  
 181   18:10   95.1     9   17.4   262     23.0   872.9    0.00     196    36.4  
 181   18:20   94.4     9   19.2   278     24.8   873.0    0.00     166    36.4  
 181   18:30   93.7    10   18.8   290     27.5   873.1    0.00     137    36.4  
 181   18:40   92.9    10   19.6   287     26.6   873.3    0.00     110    36.4  
 181   18:50   92.5    10   17.2   282     24.8   873.5    0.00      80    36.5  
 181   19:00   91.9    10   17.6   279     25.7   873.7    0.00      48    36.5  
 181   19:10   90.8    10   16.9   278     23.9   873.8    0.00      19    36.5  
 181   19:20   89.9    10   16.0   285     23.0   874.0    0.00      13    36.5  
 181   19:30   89.2    10   15.3   290     20.3   874.1    0.00       7    36.4  
 181   19:40   88.6    11   15.2   292     21.2   874.2    0.00       3    36.4  
 181   19:50   88.2    10   15.6   291     23.0   874.3    0.00       1    36.4  
 181   20:00   87.6    10   14.8   295     21.2   874.5    0.00       0    36.4  
 181   20:10   86.7    10   15.3   296     19.4   874.5    0.00       0    36.3  
 181   20:20   86.0    10   13.4   292     19.4   874.5    0.00       0    36.3  
 181   20:30   86.0    11   17.0   289     23.9   874.5    0.00       0    36.3  
 181   20:40   85.9    11   17.7   282     26.6   874.5    0.00       0    36.2  
 181   20:50   85.1    11   16.8   281     22.1   874.4    0.00       0    36.2  
 181   21:00   83.7    12   14.8   272     19.4   874.5    0.00       0    36.1  
 181   21:10   83.3    13   15.5   280     21.2   874.5    0.00       0    36.0  
 181   21:20   83.3    13   16.8   291     22.1   874.5    0.00       0    36.0  
 181   21:30   82.9    13   15.4   302     22.1   874.5    0.00       0    35.9  
 181   21:40   81.0    15   12.3   315     15.8   874.5    0.00       0    35.8  
 181   21:50   81.2    14   13.1   294     19.4   874.5    0.00       0    35.8  
 181   22:00   82.5    13   17.9   286     25.7   874.5    0.00       0    35.7  
 181   22:10   82.9    12   17.8   285     23.9   874.6    0.00       0    35.6  
 181   22:20   82.4    13   13.6   277     23.0   874.8    0.00       0    35.5  
 181   22:30   81.2    13    8.4   273     11.4   875.0    0.00       0    35.4  
 181   22:40   80.1    13    5.5   236      8.7   875.2    0.00       0    35.4  
 181   22:50   78.4    14    1.3   148      6.0   875.3    0.00       0    35.3  
 181   23:00   77.8    14    6.1   202      9.6   875.2    0.00       0    35.2  
 181   23:10   77.5    14    9.2   220     12.3   875.2    0.00       0    35.1  
 181   23:20   79.5    12   14.0   238     19.4   875.1    0.00       0    35.0  
 181   23:30   80.8    11   13.6   256     17.6   875.0    0.00       0    35.0  
 181   23:40   79.4    12    9.6   254     13.2   875.1    0.00       0    34.9  
 181   23:50   78.5    11   10.8   252     18.5   875.0    0.00       0    34.8  
 182    0:00   80.3     9   15.4   271     19.4   874.8    0.00       0    34.7  
 182    0:10   79.1    10   12.7   269     17.6   874.7    0.00       0    34.6  
 182    0:20   78.3    10   12.1   275     15.8   874.6    0.00       0    34.5  
 182    0:30   78.7    10   11.1   280     14.1   874.6    0.00       0    34.4  
 182    0:40   78.9     9   11.0   297     13.2   874.6    0.00       0    34.3  
 182    0:50   79.8     9   12.7   304     16.7   874.6    0.00       0    34.2  
 182    1:00   78.8    10   14.8   301     20.3   874.4    0.00       0    34.1  
 182    1:10   79.9    10   15.6   297     20.3   874.3    0.00       0    34.0  
 182    1:20   80.0    10   14.1   295     18.5   874.2    0.00       0    34.0  
 182    1:30   79.8    10   13.9   293     17.6   874.2    0.00       0    33.9  
 182    1:40   79.2    10    8.4   335     16.7   874.4    0.00       0    33.8  
 182    1:50   75.9    12    2.8   149      6.9   874.5    0.00       0    33.7  
 182    2:00   76.5    12    3.7   209      6.9   874.5    0.00       0    33.6  
 182    2:10   75.1    12    4.2   236      6.0   874.4    0.00       0    33.5  
 182    2:20   73.5    13    4.8   227      7.8   874.3    0.00       0    33.5  
 182    2:30   73.8    13    4.7   237     11.4   874.3    0.00       0    33.4  
 182    2:40   73.8    14    5.2   219      8.7   874.3    0.00       0    33.3  
 182    2:50   73.1    14    7.6   219      9.6   874.3    0.00       0    33.2  
 182    3:00   72.6    15    6.3   236      8.7   874.3    0.00       0    33.1  
 182    3:10   71.5    16    8.5   253     11.4   874.2    0.00       0    33.0  
 182    3:20   71.9    16   10.7   244     13.2   874.1    0.00       0    33.0  

Return to Garden Spring, Nevada graphs page.


Western Regional Climate Center,wrcc@dri.edu